Time;durP1;ratioP1;P1;durP2;ratioP2;P2;SDS_P1;SDS_P2;PMS_P1;PMS_P2;Temp;Humidity;BMP_temperature;BMP_pressure;BME280_temperature;BME280_humidity;BME280_pressure;Samples;Min_cycle;Max_cycle;Signal;HPM_P1;HPM_P2
2022/12/28 00:01:07;;;;;;;3.25;2.10;;;;;;;;;;5031725;28;20396;-82
2022/12/28 00:03:33;;;;;;;3.23;2.17;;;;;;;;;;5039023;28;20013;-84
2022/12/28 00:05:59;;;;;;;3.17;1.65;;;;;;;;;;5044299;28;20037;-81
2022/12/28 00:08:25;;;;;;;4.00;2.17;;;;;;;;;;5059602;28;20189;-83
2022/12/28 00:10:51;;;;;;;2.90;2.08;;;;;;;;;;5054863;28;20084;-82
2022/12/28 00:13:16;;;;;;;2.78;1.73;;;;;;;;;;5060387;28;20044;-82
2022/12/28 00:15:42;;;;;;;2.00;1.65;;;;;;;;;;5048247;28;20056;-81
2022/12/28 00:18:08;;;;;;;2.63;2.05;;;;;;;;;;5039043;28;20154;-81
2022/12/28 00:20:34;;;;;;;3.75;2.03;;;;;;;;;;5032382;28;20037;-82
2022/12/28 00:23:04;;;;;;;1.77;1.55;;;;;;;;;;5037891;28;20053;-81
2022/12/28 00:25:30;;;;;;;2.92;2.30;;;;;;;;;;5034401;28;20032;-80
2022/12/28 00:27:56;;;;;;;2.13;1.50;;;;;;;;;;5036310;28;20032;-84
2022/12/28 00:30:22;;;;;;;7.05;3.00;;;;;;;;;;5038838;28;20048;-80
2022/12/28 00:32:48;;;;;;;3.25;1.63;;;;;;;;;;5036697;28;20095;-80
2022/12/28 00:35:14;;;;;;;2.85;2.30;;;;;;;;;;5038402;28;20473;-81
2022/12/28 00:37:40;;;;;;;3.03;1.73;;;;;;;;;;5034507;28;20548;-82
2022/12/28 00:40:06;;;;;;;1.90;1.27;;;;;;;;;;5030060;28;21158;-82
2022/12/28 00:42:32;;;;;;;4.07;2.10;;;;;;;;;;5033039;28;20017;-82
2022/12/28 00:44:58;;;;;;;3.13;1.70;;;;;;;;;;5030217;28;20028;-81
2022/12/28 00:47:24;;;;;;;2.95;1.35;;;;;;;;;;5030060;28;20036;-80
2022/12/28 00:49:50;;;;;;;1.73;1.42;;;;;;;;;;5036445;28;20030;-80
2022/12/28 00:52:16;;;;;;;3.80;1.77;;;;;;;;;;5036394;28;20029;-80
2022/12/28 00:54:42;;;;;;;3.88;2.55;;;;;;;;;;5036554;28;20049;-80
2022/12/28 00:57:07;;;;;;;3.53;2.63;;;;;;;;;;5031214;28;20083;-82
2022/12/28 00:59:33;;;;;;;3.55;2.22;;;;;;;;;;5030033;28;20017;-83
2022/12/28 01:01:59;;;;;;;1.85;1.75;;;;;;;;;;5033721;28;20029;-81
2022/12/28 01:04:25;;;;;;;3.47;1.60;;;;;;;;;;5033490;28;20099;-81
2022/12/28 01:06:51;;;;;;;3.10;1.90;;;;;;;;;;5029114;28;20049;-82
2022/12/28 01:09:17;;;;;;;7.53;2.78;;;;;;;;;;5033879;28;20037;-81
2022/12/28 01:11:43;;;;;;;3.03;1.95;;;;;;;;;;5042829;28;20075;-81
2022/12/28 01:14:09;;;;;;;2.03;1.40;;;;;;;;;;5033651;28;20119;-81
2022/12/28 01:16:35;;;;;;;1.52;1.23;;;;;;;;;;5038676;28;20690;-82
2022/12/28 01:19:02;;;;;;;6.60;3.55;;;;;;;;;;5040033;28;20108;-84
2022/12/28 01:21:30;;;;;;;2.70;2.05;;;;;;;;;;5038828;28;20108;-82
2022/12/28 01:23:57;;;;;;;5.53;2.60;;;;;;;;;;5036324;28;20025;-81
2022/12/28 01:26:24;;;;;;;2.67;1.02;;;;;;;;;;5040465;28;20155;-81
2022/12/28 01:28:50;;;;;;;4.25;2.55;;;;;;;;;;5031843;28;20032;-83
2022/12/28 01:31:16;;;;;;;2.80;2.22;;;;;;;;;;5037138;28;20025;-82
2022/12/28 01:33:43;;;;;;;4.93;1.63;;;;;;;;;;5040075;28;20029;-82
2022/12/28 01:36:19;;;;;;;4.55;2.17;;;;;;;;;;5035574;28;20705;-83
2022/12/28 01:38:45;;;;;;;4.97;3.13;;;;;;;;;;5038285;28;20033;-82
2022/12/28 01:41:13;;;;;;;5.72;2.17;;;;;;;;;;5040621;28;20029;-81
2022/12/28 01:43:40;;;;;;;2.00;1.85;;;;;;;;;;5040534;28;20035;-83
2022/12/28 01:46:07;;;;;;;4.63;2.72;;;;;;;;;;5034191;28;20116;-81
2022/12/28 01:48:33;;;;;;;3.92;2.50;;;;;;;;;;5041982;28;20045;-83
2022/12/28 01:51:00;;;;;;;1.90;1.48;;;;;;;;;;5030719;28;21809;-84
2022/12/28 01:53:26;;;;;;;3.75;2.03;;;;;;;;;;5040057;28;20055;-82
2022/12/28 01:55:52;;;;;;;6.63;1.42;;;;;;;;;;5035669;28;20528;-80
2022/12/28 01:58:23;;;;;;;5.18;1.52;;;;;;;;;;5035496;28;20033;-80
2022/12/28 02:00:49;;;;;;;1.92;1.70;;;;;;;;;;5036192;28;20124;-81
2022/12/28 02:03:18;;;;;;;4.32;2.38;;;;;;;;;;5040457;28;20025;-80
2022/12/28 02:05:45;;;;;;;4.03;2.28;;;;;;;;;;5043070;28;22021;-82
2022/12/28 02:08:31;;;;;;;2.35;1.63;;;0.60;99.90;;;;;;5037294;28;20112;-83
2022/12/28 02:10:57;;;;;;;2.20;1.77;;;;;;;;;;5041102;28;20037;-81
2022/12/28 02:13:24;;;;;;;5.30;2.30;;;;;;;;;;5034335;28;20131;-81
2022/12/28 02:15:50;;;;;;;2.67;1.52;;;;;;;;;;5036743;28;20081;-81
2022/12/28 02:18:17;;;;;;;2.63;0.98;;;;;;;;;;5041555;28;20044;-84
2022/12/28 02:21:04;;;;;;;4.53;2.78;;;;;;;;;;5036582;28;20056;-84
2022/12/28 02:23:45;;;;;;;3.47;1.38;;;;;;;;;;5032097;28;20033;-80
2022/12/28 02:26:19;;;;;;;3.65;2.65;;;;;;;;;;5038761;28;20029;-84
2022/12/28 02:28:45;;;;;;;3.58;1.73;;;;;;;;;;5019461;28;20033;-81
2022/12/28 02:31:14;;;;;;;5.00;2.72;;;;;;;;;;5036427;28;20496;-80
2022/12/28 02:33:46;;;;;;;2.45;1.65;;;;;;;;;;5037643;28;20029;-82
2022/12/28 02:36:34;;;;;;;2.17;1.70;;;;;;;;;;5037729;28;20041;-82
2022/12/28 02:39:13;;;;;;;4.28;2.45;;;;;;;;;;5036763;28;20080;-84
2022/12/28 02:41:40;;;;;;;1.98;1.30;;;;;;;;;;5039698;28;20025;-85
2022/12/28 02:44:06;;;;;;;3.97;2.00;;;;;;;;;;5031518;28;20060;-81
2022/12/28 02:52:12;;;;;;;5.05;1.80;;;;;;;;;;5035953;28;20117;-83
2022/12/28 02:57:38;;;;;;;3.55;1.75;;;;;;;;;;5034184;28;20045;-81
2022/12/28 03:00:06;;;;;;;11.38;2.55;;;;;;;;;;5040390;28;20037;-83
2022/12/28 03:02:50;;;;;;;1.95;1.58;;;;;;;;;;5032475;28;20025;-81
2022/12/28 03:08:30;;;;;;;3.20;2.05;;;;;;;;;;5010067;28;20111;-81
2022/12/28 03:11:03;;;;;;;3.83;2.78;;;;;;;;;;5037206;28;20085;-83
2022/12/28 03:13:42;;;;;;;5.63;2.30;;;;;;;;;;5034439;28;20037;-82
2022/12/28 03:16:28;;;;;;;1.90;1.20;;;1.00;99.90;;;;;;5033531;28;20060;-82
2022/12/28 03:33:00;;;;;;;1.92;1.50;;;;;;;;;;5037196;28;20047;-80
2022/12/28 03:35:35;;;;;;;3.05;1.50;;;;;;;;;;5036373;28;20029;-82
2022/12/28 03:38:02;;;;;;;1.77;1.20;;;;;;;;;;5028706;28;20460;-81
2022/12/28 03:40:47;;;;;;;2.60;1.55;;;;;;;;;;5033542;28;20028;-82
2022/12/28 03:43:40;;;;;;;4.07;2.08;;;;;;;;;;5030455;28;21088;-83
2022/12/28 03:46:18;;;;;;;2.17;1.50;;;1.80;99.90;;;;;;5037880;28;20029;-82
2022/12/28 03:48:44;;;;;;;8.98;4.47;;;;;;;;;;5039762;28;20044;-83
2022/12/28 03:51:11;;;;;;;10.65;6.00;;;;;;;;;;5042648;28;20024;-84
2022/12/28 03:53:42;;;;;;;10.20;5.75;;;;;;;;;;5033097;28;20029;-82
2022/12/28 03:56:09;;;;;;;6.32;4.88;;;;;;;;;;5028596;28;20033;-81
2022/12/28 03:58:35;;;;;;;8.18;3.70;;;;;;;;;;5033887;28;20024;-82
2022/12/28 04:01:01;;;;;;;5.95;2.92;;;;;;;;;;5040003;28;20033;-81
2022/12/28 04:03:27;;;;;;;3.65;2.05;;;;;;;;;;5036528;28;20029;-84
2022/12/28 04:05:54;;;;;;;6.22;2.63;;;;;;;;;;5032984;28;20041;-84
2022/12/28 04:08:20;;;;;;;4.15;1.52;;;;;;;;;;5043374;28;21049;-83
2022/12/28 04:10:46;;;;;;;1.80;1.40;;;;;;;;;;5037126;28;20117;-81
2022/12/28 04:13:12;;;;;;;3.20;1.60;;;;;;;;;;5033033;28;20032;-85
2022/12/28 04:15:38;;;;;;;3.80;1.95;;;;;;;;;;5035264;28;20137;-83
2022/12/28 04:18:04;;;;;;;2.95;1.55;;;;;;;;;;5036166;28;20087;-81
2022/12/28 04:20:30;;;;;;;5.63;1.83;;;;;;;;;;5040205;28;20082;-82
2022/12/28 04:22:56;;;;;;;1.45;1.00;;;;;;;;;;5037848;28;20024;-84
2022/12/28 04:25:22;;;;;;;2.83;1.27;;;;;;;;;;5039504;28;21207;-81
2022/12/28 04:27:48;;;;;;;2.58;1.70;;;;;;;;;;5032589;28;20032;-83
2022/12/28 04:30:14;;;;;;;1.95;1.55;;;;;;;;;;5031113;28;20021;-83
2022/12/28 04:32:39;;;;;;;2.05;1.63;;;;;;;;;;5035722;28;20045;-81
2022/12/28 04:35:06;;;;;;;2.22;1.15;;;;;;;;;;5039789;28;20564;-83
2022/12/28 04:37:31;;;;;;;1.33;1.13;;;;;;;;;;5037994;28;20045;-83
2022/12/28 04:39:58;;;;;;;2.75;1.35;;;;;;;;;;5035044;28;20376;-85
2022/12/28 04:42:24;;;;;;;2.80;1.40;;;;;;;;;;5036739;28;20028;-84
2022/12/28 04:44:50;;;;;;;1.80;1.00;;;;;;;;;;5035481;28;20025;-81
2022/12/28 04:47:16;;;;;;;4.82;0.95;;;;;;;;;;5032936;28;20386;-83
2022/12/28 04:49:42;;;;;;;2.13;1.10;;;;;;;;;;5034647;28;20029;-84
2022/12/28 04:52:08;;;;;;;1.58;0.77;;;;;;;;;;5041267;28;20033;-84
2022/12/28 04:54:34;;;;;;;2.83;1.23;;;;;;;;;;5034207;28;20174;-82
2022/12/28 04:57:00;;;;;;;2.70;1.20;;;;;;;;;;5036864;28;20048;-83
2022/12/28 04:59:26;;;;;;;1.48;0.98;;;;;;;;;;5042006;28;20049;-82
2022/12/28 05:01:52;;;;;;;2.10;1.55;;;;;;;;;;5023605;28;20057;-83
2022/12/28 05:04:18;;;;;;;12.63;1.13;;;;;;;;;;5037230;28;20028;-82
2022/12/28 05:06:44;;;;;;;4.38;1.30;;;;;;;;;;5041105;28;20040;-81
2022/12/28 05:09:10;;;;;;;0.98;0.80;;;;;;;;;;5042970;28;20021;-83
2022/12/28 05:11:36;;;;;;;3.20;1.02;;;;;;;;;;5038719;28;20029;-82
2022/12/28 05:14:02;;;;;;;3.03;0.80;;;;;;;;;;5035077;28;20136;-84
2022/12/28 05:16:29;;;;;;;1.65;0.80;;;;;;;;;;5035353;28;20058;-83
2022/12/28 05:18:56;;;;;;;2.20;1.13;;;2.10;99.90;;;;;;5045706;28;20040;-82
2022/12/28 05:21:23;;;;;;;2.55;1.00;;;;;;;;;;5043518;28;20075;-83
2022/12/28 05:23:49;;;;;;;1.67;1.10;;;;;;;;;;5038291;28;20096;-84
2022/12/28 05:26:16;;;;;;;2.55;1.25;;;;;;;;;;5042734;28;20431;-84
2022/12/28 05:28:42;;;;;;;3.53;1.60;;;;;;;;;;5037246;28;20035;-83
2022/12/28 05:31:13;;;;;;;1.92;0.90;;;;;;;;;;5039054;28;20026;-84
2022/12/28 05:33:39;;;;;;;4.25;1.25;;;;;;;;;;5043691;28;20123;-83
2022/12/28 05:36:06;;;;;;;1.35;0.80;;;;;;;;;;5042283;28;20036;-82
2022/12/28 05:38:32;;;;;;;4.32;1.33;;;;;;;;;;5038777;28;20039;-82
2022/12/28 05:41:06;;;;;;;1.63;1.05;;;;;;;;;;5041705;28;20032;-83
2022/12/28 05:43:32;;;;;;;0.98;0.85;;;;;;;;;;5056864;28;20016;-83
2022/12/28 05:46:02;;;;;;;2.20;1.33;;;;;;;;;;5056798;28;20033;-84
2022/12/28 05:48:30;;;;;;;1.00;0.88;;;;;;;;;;5038658;28;20029;-80
2022/12/28 05:50:58;;;;;;;2.03;0.95;;;;;;;;;;5044192;28;20500;-81
2022/12/28 05:53:24;;;;;;;1.13;0.60;;;;;;;;;;5031913;28;20021;-83
2022/12/28 05:55:49;;;;;;;2.45;1.05;;;;;;;;;;5049890;28;20098;-82
2022/12/28 05:58:15;;;;;;;1.30;1.15;;;;;;;;;;5038730;28;20029;-80
2022/12/28 06:00:41;;;;;;;2.08;1.10;;;;;;;;;;5042370;28;20056;-81
2022/12/28 06:03:07;;;;;;;1.83;1.00;;;;;;;;;;5046704;28;20029;-83
2022/12/28 06:05:33;;;;;;;2.35;1.08;;;;;;;;;;5045156;28;20052;-83
2022/12/28 06:07:59;;;;;;;2.35;0.70;;;;;;;;;;5037173;28;20490;-82
2022/12/28 06:10:25;;;;;;;1.50;0.82;;;;;;;;;;5038343;28;20032;-83
2022/12/28 06:12:51;;;;;;;1.70;0.98;;;;;;;;;;5037957;28;20053;-83
2022/12/28 06:15:17;;;;;;;3.00;0.85;;;;;;;;;;5043105;28;20033;-83
2022/12/28 06:17:43;;;;;;;1.63;0.93;;;;;;;;;;5044756;28;20052;-82
2022/12/28 06:20:09;;;;;;;0.70;0.70;;;;;;;;;;5045143;28;20029;-83
2022/12/28 06:22:35;;;;;;;1.75;1.00;;;;;;;;;;5047219;28;20037;-84
2022/12/28 06:25:01;;;;;;;0.65;0.52;;;;;;;;;;5051528;28;20055;-84
2022/12/28 06:27:27;;;;;;;1.85;1.00;;;;;;;;;;5041397;28;20104;-81
2022/12/28 06:29:53;;;;;;;1.65;0.80;;;;;;;;;;5043425;28;20025;-82
2022/12/28 06:32:19;;;;;;;1.40;0.93;;;;;;;;;;5043980;28;20044;-81
2022/12/28 06:34:45;;;;;;;3.58;1.25;;;;;;;;;;5042375;28;20025;-82
2022/12/28 06:37:11;;;;;;;9.95;4.03;;;;;;;;;;5046431;28;20396;-83
2022/12/28 06:39:37;;;;;;;22.13;7.82;;;;;;;;;;5041293;28;20394;-82
2022/12/28 06:42:03;;;;;;;26.38;10.57;;;;;;;;;;5047330;28;20225;-84
2022/12/28 06:44:29;;;;;;;35.22;9.35;;;;;;;;;;5053964;28;20405;-81
2022/12/28 06:46:55;;;;;;;20.45;5.85;;;;;;;;;;5039201;28;20117;-82
2022/12/28 06:49:21;;;;;;;10.63;3.40;;;;;;;;;;5054762;28;20021;-80
2022/12/28 06:51:47;;;;;;;10.27;2.78;;;;;;;;;;5048180;28;20033;-82
2022/12/28 06:54:12;;;;;;;9.13;3.20;;;;;;;;;;5043587;28;20037;-84
2022/12/28 06:56:38;;;;;;;13.32;6.43;;;;;;;;;;5041405;28;20060;-81
2022/12/28 06:59:05;;;;;;;24.13;9.13;;;;;;;;;;5036665;28;20027;-83
2022/12/28 07:01:33;;;;;;;9.25;4.90;;;;;;;;;;5042801;28;20032;-81
2022/12/28 07:04:00;;;;;;;5.57;3.40;;;;;;;;;;5049521;28;20021;-82
2022/12/28 07:06:26;;;;;;;6.82;2.97;;;;;;;;;;5042310;28;20118;-84
2022/12/28 07:08:57;;;;;;;4.93;1.33;;;;;;;;;;5035019;28;20033;-80
2022/12/28 07:11:23;;;;;;;3.58;1.80;;;;;;;;;;5041024;28;20386;-83
2022/12/28 07:13:49;;;;;;;6.93;2.80;;;;;;;;;;5041025;28;22250;-83
2022/12/28 07:16:16;;;;;;;4.45;2.47;;;;;;;;;;5036043;28;20037;-83
2022/12/28 07:18:43;;;;;;;2.47;1.75;;;;;;;;;;5028355;28;20034;-84
2022/12/28 07:21:13;;;;;;;4.72;1.73;;;;;;;;;;5029234;28;20120;-79
2022/12/28 07:23:39;;;;;;;1.85;1.20;;;;;;;;;;5043467;28;20049;-80
2022/12/28 07:26:05;;;;;;;1.58;1.05;;;;;;;;;;5043583;28;20025;-83
2022/12/28 07:28:31;;;;;;;6.00;1.30;;;;;;;;;;5038341;28;20079;-82
2022/12/28 07:30:57;;;;;;;1.73;1.27;;;;;;;;;;5041596;28;20032;-77
2022/12/28 07:33:23;;;;;;;7.03;1.65;;;;;;;;;;5041715;28;20025;-79
2022/12/28 07:35:49;;;;;;;3.60;1.40;;;;;;;;;;5045441;28;20047;-81
2022/12/28 07:38:15;;;;;;;12.60;4.25;;;;;;;;;;5037127;28;20132;-81
2022/12/28 07:40:41;;;;;;;6.43;2.55;;;;;;;;;;5039363;28;20040;-78
2022/12/28 07:43:07;;;;;;;5.00;2.10;;;;;;;;;;5033776;28;20037;-79
2022/12/28 07:45:33;;;;;;;4.40;2.65;;;;;;;;;;5040872;28;20025;-82
2022/12/28 07:47:59;;;;;;;7.45;2.65;;;;;;;;;;5047055;28;20392;-82
2022/12/28 07:50:24;;;;;;;2.38;1.45;;;;;;;;;;5044541;28;20031;-79
2022/12/28 07:52:51;;;;;;;4.70;1.80;;;;;;;;;;5043581;28;20053;-80
2022/12/28 07:55:16;;;;;;;2.55;1.13;;;;;;;;;;5042944;28;20029;-82
2022/12/28 07:57:42;;;;;;;7.50;1.88;;;;;;;;;;5040329;28;20102;-85
2022/12/28 08:00:09;;;;;;;2.15;0.85;;;;;;;;;;5033596;28;20017;-82
2022/12/28 08:02:35;;;;;;;3.58;1.48;;;;;;;;;;5033864;28;20417;-83
2022/12/28 08:05:01;;;;;;;2.38;1.27;;;;;;;;;;5036669;28;20021;-84
2022/12/28 08:07:27;;;;;;;5.95;2.75;;;;;;;;;;5025829;28;20061;-82
2022/12/28 08:09:53;;;;;;;39.53;15.75;;;;;;;;;;5028137;28;20021;-82
2022/12/28 08:12:20;;;;;;;5.35;2.42;;;;;;;;;;5020939;28;20045;-80
2022/12/28 08:14:46;;;;;;;6.78;2.65;;;;;;;;;;5022659;28;20064;-82
2022/12/28 08:17:11;;;;;;;6.60;2.97;;;;;;;;;;5025391;28;20236;-81
2022/12/28 08:19:37;;;;;;;8.15;4.22;;;;;;;;;;5024829;28;20048;-84
2022/12/28 08:22:03;;;;;;;11.10;6.03;;;;;;;;;;5033822;28;20273;-83
2022/12/28 08:24:29;;;;;;;11.60;5.68;;;;;;;;;;5034568;28;20425;-84
2022/12/28 08:26:55;;;;;;;8.32;4.40;;;;;;;;;;5034170;28;20518;-80
2022/12/28 08:29:21;;;;;;;8.23;4.53;;;;;;;;;;5031220;28;20108;-80
2022/12/28 08:31:48;;;;;;;6.72;2.72;;;;;;;;;;5029687;28;20035;-82
2022/12/28 08:34:18;;;;;;;4.65;2.78;;;;;;;;;;5038666;28;20032;-84
2022/12/28 08:36:44;;;;;;;7.60;2.55;;;;;;;;;;4999767;28;20049;-84
2022/12/28 08:39:10;;;;;;;4.68;1.98;;;;;;;;;;4983186;28;20049;-83
2022/12/28 08:41:36;;;;;;;3.92;2.40;;;;;;;;;;4983465;28;20039;-83
2022/12/28 08:44:02;;;;;;;9.52;1.83;;;;;;;;;;4979634;28;20038;-79
2022/12/28 08:46:29;;;;;;;3.53;1.77;;;;;;;;;;4980817;28;20056;-82
2022/12/28 08:48:56;;;;;;;3.97;1.88;;;;;;;;;;4981902;28;20030;-82
2022/12/28 08:51:27;;;;;;;10.80;2.75;;;;;;;;;;4980860;28;20038;-80
2022/12/28 08:53:53;;;;;;;9.90;2.47;;;;;;;;;;4973896;28;20746;-82
2022/12/28 08:56:21;;;;;;;9.35;2.20;;;;;;;;;;4976853;28;20086;-82
2022/12/28 08:58:47;;;;;;;3.80;2.13;;;;;;;;;;4976966;28;20041;-81
2022/12/28 09:01:18;;;;;;;1.83;1.13;;;;;;;;;;4971587;28;22378;-83
2022/12/28 09:03:44;;;;;;;1.08;0.82;;;;;;;;;;4984321;28;20507;-83
2022/12/28 09:06:12;;;;;;;1.48;0.90;;;;;;;;;;4979128;28;20049;-81
2022/12/28 09:08:39;;;;;;;1.83;0.88;;;;;;;;;;4982176;28;20571;-82
2022/12/28 09:11:06;;;;;;;1.08;0.65;;;;;;;;;;4976302;28;20041;-81
2022/12/28 09:13:32;;;;;;;1.85;0.82;;;;;;;;;;4979206;28;20093;-81
2022/12/28 09:15:59;;;;;;;3.30;0.73;;;;;;;;;;4981322;28;20085;-82
2022/12/28 09:18:25;;;;;;;2.63;0.77;;;;;;;;;;4982230;28;20022;-81
2022/12/28 09:20:51;;;;;;;1.55;0.55;;;;;;;;;;4969609;28;20081;-81
2022/12/28 09:23:17;;;;;;;0.80;0.60;;;;;;;;;;4979247;28;20080;-82
2022/12/28 09:25:43;;;;;;;0.90;0.60;;;;;;;;;;4974399;28;20498;-83
2022/12/28 09:28:09;;;;;;;4.28;0.85;;;;;;;;;;4985673;28;20111;-83
2022/12/28 09:30:35;;;;;;;1.58;0.70;;;;;;;;;;4977271;28;20031;-82
2022/12/28 09:35:46;;;;;;;7.32;0.65;;;;;;;;;;4985588;28;20394;-81
2022/12/28 09:38:12;;;;;;;0.63;0.40;;;;;;;;;;4976737;28;20027;-80
2022/12/28 09:40:38;;;;;;;4.10;0.60;;;;;;;;;;4975803;28;20027;-82
2022/12/28 09:43:04;;;;;;;0.47;0.40;;;6.10;99.90;;;;;;4979848;28;20018;-82
2022/12/28 09:45:31;;;;;;;1.38;0.88;;;;;;;;;;4986901;28;20130;-83
2022/12/28 09:48:11;;;;;;;3.08;0.77;;;6.50;99.90;;;;;;4980902;28;20587;-86
2022/12/28 09:50:37;;;;;;;0.90;0.50;;;;;;;;;;4987334;28;20034;-86
2022/12/28 09:53:03;;;;;;;2.40;0.50;;;;;;;;;;4981940;28;22450;-85
2022/12/28 09:55:29;;;;;;;2.78;1.10;;;;;;;;;;4983764;28;20731;-84
2022/12/28 09:57:56;;;;;;;7.22;3.13;;;;;;;;;;4971731;28;20045;-90
2022/12/28 10:00:42;;;;;;;1.27;0.60;;;6.40;99.90;;;;;;4974135;28;20477;-84
2022/12/28 10:03:36;;;;;;;1.30;0.75;;;7.70;99.90;;;;;;4979763;28;20072;-82
2022/12/28 10:06:08;;;;;;;0.82;0.20;;;6.50;99.90;;;;;;4983246;28;20058;-84
2022/12/28 10:08:38;;;;;;;1.00;0.73;;;;;;;;;;4975962;28;20478;-86
2022/12/28 10:11:05;;;;;;;1.60;0.60;;;;;;;;;;4983612;28;20022;-84
2022/12/28 10:13:36;;;;;;;0.20;0.20;;;;;;;;;;4980229;28;20086;-85
2022/12/28 10:16:03;;;;;;;1.55;0.38;;;;;;;;;;4979060;28;20065;-84
2022/12/28 10:18:29;;;;;;;9.40;2.90;;;;;;;;;;4974777;28;20022;-84
2022/12/28 10:20:55;;;;;;;1.80;1.13;;;;;;;;;;4977646;28;20049;-84
2022/12/28 10:23:24;;;;;;;2.75;0.45;;;;;;;;;;4977091;28;20046;-84
2022/12/28 10:25:52;;;;;;;1.08;0.50;;;;;;;;;;4975413;28;20555;-81
2022/12/28 10:28:21;;;;;;;4.75;2.28;;;8.40;99.90;;;;;;4976319;28;20046;-83
2022/12/28 10:30:49;;;;;;;3.00;1.13;;;;;;;;;;4969550;28;20033;-81
2022/12/28 10:33:18;;;;;;;1.63;0.60;;;8.20;99.90;;;;;;4985966;28;20030;-82
2022/12/28 10:35:52;;;;;;;2.17;0.47;;;;;;;;;;4978177;28;20526;-83
2022/12/28 10:38:30;;;;;;;3.15;0.90;;;8.30;99.90;;;;;;4981282;28;20030;-84
2022/12/28 10:40:56;;;;;;;4.05;0.98;;;;;;;;;;4981098;28;20077;-84
2022/12/28 10:43:22;;;;;;;4.97;0.68;;;;;;;;;;4988258;28;20035;-81
2022/12/28 10:45:49;;;;;;;0.50;0.30;;;;;;;;;;4977398;28;20455;-82
2022/12/28 10:48:18;;;;;;;0.60;0.35;;;;;;;;;;4983650;28;20402;-87
2022/12/28 10:50:47;;;;;;;0.35;0.25;;;;;;;;;;4979935;28;20042;-83
2022/12/28 10:53:29;;;;;;;0.65;0.43;;;;;;;;;;4973889;28;20049;-80
2022/12/28 10:56:13;;;;;;;0.70;0.25;;;;;;;;;;4973827;28;20042;-83
2022/12/28 10:58:39;;;;;;;0.32;0.20;;;;;;;;;;4962359;28;20034;-82
2022/12/28 11:01:06;;;;;;;8.70;0.40;;;;;;;;;;4969112;28;20027;-83
2022/12/28 11:03:34;;;;;;;2.20;0.55;;;;;;;;;;4975758;28;20131;-86
2022/12/28 11:06:08;;;;;;;1.48;0.80;;;;;;;;;;4974714;28;20038;-84
2022/12/28 11:08:34;;;;;;;1.85;0.98;;;;;;;;;;4981384;28;20030;-82
2022/12/28 11:11:00;;;;;;;0.43;0.22;;;;;;;;;;4970245;28;20538;-82
2022/12/28 11:13:27;;;;;;;1.85;0.40;;;;;;;;;;4979299;28;20034;-81
2022/12/28 11:15:53;;;;;;;0.57;0.32;;;;;;;;;;4978033;28;20034;-81
2022/12/28 11:18:20;;;;;;;0.73;0.28;;;;;;;;;;4981741;28;20264;-83
2022/12/28 11:20:48;;;;;;;0.65;0.20;;;;;;;;;;4985785;28;20038;-82
2022/12/28 11:23:30;;;;;;;2.03;0.30;;;9.90;99.90;;;;;;4991913;28;20037;-81
2022/12/28 11:25:56;;;;;;;0.25;0.22;;;;;;;;;;4986576;28;20030;-82
2022/12/28 11:28:23;;;;;;;1.67;0.35;;;;;;;;;;4989318;28;20011;-82
2022/12/28 11:30:50;;;;;;;0.20;0.10;;;;;;;;;;4981739;28;22603;-81
2022/12/28 11:33:41;;;;;;;3.25;0.15;;;10.00;99.90;;;;;;4978721;28;20023;-82
2022/12/28 11:36:13;;;;;;;0.30;0.20;;;;;;;;;;4979312;28;20045;-80
2022/12/28 11:38:41;;;;;;;0.25;0.10;;;;;;;;;;4981118;28;20026;-81
2022/12/28 11:41:11;;;;;;;0.17;0.13;;;;;;;;;;4973005;28;20352;-79
2022/12/28 11:43:39;;;;;;;0.70;0.28;;;;;;;;;;4977767;28;21876;-80
2022/12/28 11:46:20;;;;;;;0.30;0.20;;;;;;;;;;4977470;28;20041;-80
2022/12/28 11:49:00;;;;;;;1.00;0.22;;;;;;;;;;4968140;28;22218;-81
2022/12/28 11:51:33;;;;;;;0.28;0.20;;;;;;;;;;4979019;28;20042;-80
2022/12/28 11:54:05;;;;;;;0.95;0.20;;;;;;;;;;4975375;28;20031;-82
2022/12/28 11:56:43;;;;;;;1.35;0.20;;;;;;;;;;4974113;28;20134;-81
2022/12/28 11:59:20;;;;;;;1.02;0.50;;;;;;;;;;4968888;28;20031;-80
2022/12/28 12:01:47;;;;;;;0.93;0.40;;;;;;;;;;4980466;28;20080;-82
2022/12/28 12:04:18;;;;;;;0.47;0.22;;;;;;;;;;4982295;28;20453;-83
2022/12/28 12:06:44;;;;;;;0.52;0.20;;;;;;;;;;4987882;28;20522;-81
2022/12/28 12:09:27;;;;;;;0.28;0.20;;;;;;;;;;4975759;28;20041;-83
2022/12/28 12:12:04;;;;;;;1.35;0.30;;;;;;;;;;4967418;28;20580;-81
2022/12/28 12:14:38;;;;;;;0.35;0.30;;;;;;;;;;4969299;28;20031;-83
2022/12/28 12:17:06;;;;;;;0.10;0.10;;;;;;;;;;4985481;28;20542;-81
2022/12/28 12:19:35;;;;;;;4.13;0.28;;;;;;;;;;4976413;28;20034;-79
2022/12/28 12:22:01;;;;;;;0.30;0.20;;;;;;;;;;4982847;28;20057;-81
2022/12/28 12:24:29;;;;;;;0.52;0.32;;;;;;;;;;4980493;28;20069;-82
2022/12/28 12:26:57;;;;;;;3.58;0.50;;;;;;;;;;4976773;28;20031;-82
2022/12/28 12:29:28;;;;;;;0.40;0.32;;;;;;;;;;4984619;28;20058;-83
2022/12/28 12:32:02;;;;;;;1.38;0.20;;;;;;;;;;4979455;28;20428;-83
2022/12/28 12:34:38;;;;;;;1.75;0.30;;;9.10;99.90;;;;;;4984882;28;20525;-83
2022/12/28 12:37:04;;;;;;;0.20;0.10;;;;;;;;;;4981458;28;20042;-82
2022/12/28 12:39:42;;;;;;;1.48;0.70;;;;;;;;;;4978211;28;20085;-83
2022/12/28 12:42:23;;;;;;;0.63;0.35;;;;;;;;;;4983062;28;20030;-82
2022/12/28 12:44:56;;;;;;;0.38;0.20;;;;;;;;;;4972420;28;20683;-80
2022/12/28 12:47:25;;;;;;;0.32;0.28;;;;;;;;;;4976236;28;20057;-82
2022/12/28 12:50:03;;;;;;;1.30;0.40;;;;;;;;;;4985192;28;20036;-85
2022/12/28 12:52:52;;;;;;;0.65;0.20;;;10.00;99.90;;;;;;4977890;28;20394;-81
2022/12/28 12:55:18;;;;;;;0.85;0.38;;;;;;;;;;4977229;28;20502;-85
2022/12/28 12:58:01;;;;;;;0.38;0.25;;;;;;;;;;4974871;28;20047;-81
2022/12/28 13:00:37;;;;;;;0.97;0.40;;;;;;;;;;4974799;28;20709;-86
2022/12/28 13:03:23;;;;;;;1.40;0.30;;;;;;;;;;4981293;28;20034;-81
2022/12/28 13:05:52;;;;;;;3.65;0.47;;;;;;;;;;4971331;28;20035;-81
2022/12/28 13:08:26;;;;;;;0.40;0.20;;;;;;;;;;4978062;28;20038;-83
2022/12/28 13:10:52;;;;;;;2.20;0.30;;;;;;;;;;4973480;28;20027;-83
2022/12/28 13:13:21;;;;;;;0.47;0.30;;;;;;;;;;4983301;28;20033;-82
2022/12/28 13:15:48;;;;;;;0.40;0.28;;;;;;;;;;4968075;28;20131;-83
2022/12/28 13:18:18;;;;;;;1.05;0.30;;;;;;;;;;4978612;28;20043;-81
2022/12/28 13:21:17;;;;;;;1.30;0.20;;;8.90;99.90;;;;;;4975275;28;20494;-86
2022/12/28 13:23:44;;;;;;;1.95;0.95;;;;;;;;;;4978293;28;20038;-86
2022/12/28 13:26:12;;;;;;;4.90;0.30;;;9.90;99.90;;;;;;4973697;28;20085;-84
2022/12/28 13:28:45;;;;;;;5.07;0.35;;;;;;;;;;4983228;28;20030;-84
2022/12/28 13:31:20;;;;;;;0.35;0.15;;;8.90;99.90;;;;;;4989579;28;20174;-82
2022/12/28 13:33:56;;;;;;;0.80;0.30;;;;;;;;;;4980932;28;20392;-81
2022/12/28 13:36:22;;;;;;;2.22;0.60;;;;;;;;;;4980050;28;20050;-82
2022/12/28 13:38:59;;;;;;;0.10;0.10;;;;;;;;;;4990031;28;20023;-80
2022/12/28 13:41:26;;;;;;;1.60;0.40;;;;;;;;;;4975040;28;20046;-83
2022/12/28 13:43:52;;;;;;;4.03;0.52;;;;;;;;;;4980850;28;20030;-83
2022/12/28 13:46:18;;;;;;;0.30;0.30;;;;;;;;;;4984758;28;20057;-84
2022/12/28 13:48:46;;;;;;;0.40;0.20;;;;;;;;;;4977299;28;20417;-83
2022/12/28 13:51:13;;;;;;;1.38;0.32;;;;;;;;;;4978518;28;20027;-83
2022/12/28 13:53:43;;;;;;;1.13;0.20;;;;;;;;;;4981297;28;20108;-84
2022/12/28 13:56:11;;;;;;;1.15;0.30;;;;;;;;;;4976322;28;20046;-83
2022/12/28 13:58:46;;;;;;;3.97;0.52;;;10.00;99.90;;;;;;4973377;28;20434;-80
2022/12/28 14:01:14;;;;;;;1.20;0.50;;;;;;;;;;4978150;28;20571;-83
2022/12/28 14:03:41;;;;;;;0.82;0.40;;;;;;;;;;4970833;28;20129;-81
2022/12/28 14:06:08;;;;;;;1.05;0.40;;;;;;;;;;4969681;28;20563;-80
2022/12/28 14:08:36;;;;;;;4.47;0.52;;;9.00;99.90;;;;;;4982381;28;20031;-80
2022/12/28 14:11:02;;;;;;;0.45;0.30;;;;;;;;;;4966934;28;20039;-79
2022/12/28 14:13:30;;;;;;;2.40;0.30;;;;;;;;;;4968498;28;20086;-80
2022/12/28 14:15:56;;;;;;;3.10;0.57;;;;;;;;;;4967430;28;20074;-81
2022/12/28 14:18:22;;;;;;;0.63;0.30;;;;;;;;;;4975103;28;20062;-82
2022/12/28 14:20:49;;;;;;;2.10;1.48;;;;;;;;;;4987211;28;20073;-82
2022/12/28 14:23:22;;;;;;;0.75;0.50;;;;;;;;;;4984870;28;20458;-81
2022/12/28 14:25:48;;;;;;;0.45;0.20;;;;;;;;;;4978274;28;20058;-82
2022/12/28 14:28:37;;;;;;;0.95;0.40;;;;;;;;;;4973308;28;20046;-82
2022/12/28 14:31:05;;;;;;;0.60;0.30;;;;;;;;;;4979038;28;20026;-84
2022/12/28 14:33:33;;;;;;;0.73;0.30;;;;;;;;;;4987142;28;20031;-81
2022/12/28 14:36:01;;;;;;;9.73;0.40;;;;;;;;;;4992835;28;20145;-79
2022/12/28 14:38:29;;;;;;;0.40;0.30;;;;;;;;;;4974664;28;20089;-81
2022/12/28 14:40:57;;;;;;;0.75;0.25;;;;;;;;;;4982119;28;20061;-83
2022/12/28 14:43:24;;;;;;;0.75;0.47;;;;;;;;;;4985225;28;20034;-84
2022/12/28 14:45:51;;;;;;;8.32;0.60;;;;;;;;;;4982084;28;20122;-83
2022/12/28 14:48:20;;;;;;;3.42;0.52;;;;;;;;;;4986680;28;20022;-83
2022/12/28 14:51:00;;;;;;;0.80;0.28;;;8.70;99.90;;;;;;4975743;28;20574;-83
2022/12/28 14:53:26;;;;;;;0.50;0.30;;;;;;;;;;4979630;28;20036;-82
2022/12/28 14:55:52;;;;;;;2.55;0.50;;;8.90;99.90;;;;;;4981831;28;20026;-83
2022/12/28 14:58:22;;;;;;;2.45;0.47;;;;;;;;;;4978797;28;20036;-82
2022/12/28 15:00:56;;;;;;;0.63;0.40;;;;;;;;;;4985588;28;20058;-85
2022/12/28 15:03:22;;;;;;;0.30;0.28;;;;;;;;;;4978299;28;20038;-83
2022/12/28 15:05:48;;;;;;;0.30;0.20;;;;;;;;;;4969464;28;20034;-84
2022/12/28 15:08:16;;;;;;;0.32;0.30;;;;;;;;;;4986201;28;20085;-81
2022/12/28 15:10:54;;;;;;;0.55;0.25;;;;;;;;;;4977975;28;20603;-81